Terminal Aerodrome Forecast
Issued by NWS

Home | Current Version | Previous Version | Text Only | Print | Product List | Glossary On
Versions: 1 2 3 4 5 6 7 8 9 10 11 12 13 14 15 16 17
851
FTUS41 KAKQ 252320
TAFPHF
TAF
KPHF 252320Z 2600/2624 31008KT P6SM BKN060
     FM260200 VRB03KT P6SM SCT060
     FM261400 21007KT P6SM SCT060=

USA.gov is the U.S. government's official web portal to all federal, state and local government web resources and services.